createdAt,value
2023-04-15T00:01:20.028Z,4.60
2023-04-15T00:03:48.807Z,4.50
2023-04-15T00:06:16.979Z,4.40
2023-04-15T00:08:45.423Z,4.10
2023-04-15T00:11:13.695Z,4.30
2023-04-15T00:13:41.705Z,4.00
2023-04-15T00:16:10.074Z,4.50
2023-04-15T00:18:38.276Z,4.70
2023-04-15T00:21:06.292Z,4.90
2023-04-15T00:23:34.341Z,4.20
2023-04-15T00:26:06.887Z,4.50
2023-04-15T00:28:34.892Z,5.10
2023-04-15T00:31:06.964Z,4.10
2023-04-15T00:33:37.122Z,4.40
2023-04-15T00:36:07.344Z,4.00
2023-04-15T00:38:35.403Z,4.10
2023-04-15T00:41:03.979Z,4.70
2023-04-15T00:43:31.901Z,4.80
2023-04-15T00:46:00.692Z,4.20
2023-04-15T00:48:31.115Z,4.70
2023-04-15T00:50:59.471Z,4.80
2023-04-15T00:53:27.576Z,4.80
2023-04-15T00:55:56.256Z,4.90
2023-04-15T00:58:24.672Z,4.40
2023-04-15T01:00:56.281Z,5.50
2023-04-15T01:03:24.623Z,4.70
2023-04-15T01:06:04.072Z,6.10
2023-04-15T01:08:33.830Z,5.80
2023-04-15T01:11:03.787Z,6.00
2023-04-15T01:13:34.157Z,6.30
2023-04-15T01:16:03.382Z,6.20
2023-04-15T01:18:31.828Z,6.30
2023-04-15T01:21:05.371Z,7.10
2023-04-15T01:23:37.866Z,7.90
2023-04-15T01:26:08.021Z,7.40
2023-04-15T01:28:36.848Z,7.20
2023-04-15T01:31:11.266Z,7.00
2023-04-15T01:33:43.453Z,8.30
2023-04-15T01:36:11.523Z,7.70
2023-04-15T01:38:39.689Z,8.70
2023-04-15T01:41:10.445Z,7.90
2023-04-15T01:43:38.387Z,9.00
2023-04-15T01:46:06.458Z,8.50
2023-04-15T01:48:34.737Z,8.10
2023-04-15T01:51:05.262Z,9.80
2023-04-15T01:53:34.449Z,9.20
2023-04-15T01:56:03.704Z,8.80
2023-04-15T01:58:31.799Z,9.20
2023-04-15T02:00:59.825Z,8.30
2023-04-15T02:03:29.365Z,8.50
2023-04-15T02:05:57.845Z,8.40
2023-04-15T02:08:25.977Z,9.10
2023-04-15T02:10:53.997Z,8.50
2023-04-15T02:13:21.995Z,8.30
2023-04-15T02:15:51.116Z,9.50
2023-04-15T02:18:20.816Z,8.80
2023-04-15T02:20:49.109Z,9.90
2023-04-15T02:23:17.079Z,8.80
2023-04-15T02:25:53.764Z,10.50
2023-04-15T02:28:22.480Z,8.90
2023-04-15T02:30:54.869Z,8.10
2023-04-15T02:33:25.166Z,9.10
2023-04-15T02:35:53.525Z,9.60
2023-04-15T02:38:21.598Z,9.10
2023-04-15T02:40:50.617Z,9.90
2023-04-15T02:43:18.580Z,9.80
2023-04-15T02:45:47.408Z,9.10
2023-04-15T02:48:18.212Z,8.50
2023-04-15T02:50:47.025Z,8.50
2023-04-15T02:53:15.711Z,9.60
2023-04-15T02:55:43.671Z,9.40
2023-04-15T02:58:11.856Z,8.90
2023-04-15T03:00:40.132Z,10.50
2023-04-15T03:03:08.501Z,9.40
2023-04-15T03:05:39.185Z,9.00
2023-04-15T03:08:07.728Z,9.80
2023-04-15T03:10:35.806Z,10.60
2023-04-15T03:13:03.763Z,10.40
2023-04-15T03:15:33.194Z,11.20
2023-04-15T03:18:02.472Z,12.40
2023-04-15T03:20:30.982Z,12.50
2023-04-15T03:22:59.116Z,10.30
2023-04-15T03:25:27.385Z,10.90
2023-04-15T03:27:55.371Z,9.60
2023-04-15T03:30:23.362Z,12.50
2023-04-15T03:32:52.185Z,12.20
2023-04-15T03:35:21.459Z,11.30
2023-04-15T03:37:49.500Z,11.70
2023-04-15T03:40:17.426Z,11.00
2023-04-15T03:42:45.636Z,11.40
2023-04-15T03:45:13.589Z,11.30
2023-04-15T03:47:41.723Z,11.50
2023-04-15T03:50:09.861Z,9.70
2023-04-15T03:52:37.870Z,10.10
2023-04-15T03:55:06.064Z,9.60
2023-04-15T03:57:38.311Z,9.70
2023-04-15T04:00:07.028Z,9.10
2023-04-15T04:02:40.140Z,9.70
2023-04-15T04:05:08.713Z,11.20
2023-04-15T04:07:36.749Z,10.30
2023-04-15T04:10:04.936Z,9.30
2023-04-15T04:12:32.927Z,11.50
2023-04-15T04:15:00.863Z,10.40
2023-04-15T04:17:28.873Z,9.90
2023-04-15T04:19:56.837Z,9.60
2023-04-15T04:22:24.901Z,9.60
2023-04-15T04:24:52.917Z,10.70
2023-04-15T04:27:20.902Z,10.70
2023-04-15T04:29:50.159Z,10.10
2023-04-15T04:32:18.147Z,9.40
2023-04-15T04:34:46.140Z,11.60
2023-04-15T04:37:14.172Z,12.10
2023-04-15T04:39:42.195Z,11.30
2023-04-15T04:42:10.203Z,13.00
2023-04-15T04:44:38.228Z,12.70
2023-04-15T04:47:07.787Z,11.90
2023-04-15T04:49:35.785Z,11.40
2023-04-15T04:52:04.002Z,10.20
2023-04-15T04:54:32.021Z,12.00
2023-04-15T04:57:00.344Z,13.00
2023-04-15T04:59:28.390Z,12.80
2023-04-15T05:01:56.786Z,12.60
2023-04-15T05:04:25.081Z,12.60
2023-04-15T05:06:52.963Z,12.70
2023-04-15T05:09:20.944Z,12.60
2023-04-15T05:11:48.954Z,11.30
2023-04-15T05:14:16.903Z,12.00
2023-04-15T05:16:44.815Z,12.10
2023-04-15T05:19:13.106Z,12.30
2023-04-15T05:21:41.126Z,12.60
2023-04-15T05:24:09.128Z,13.00
2023-04-15T05:26:37.212Z,13.30
2023-04-15T05:29:05.400Z,14.00
2023-04-15T05:31:33.648Z,13.80
2023-04-15T05:34:02.073Z,13.20
2023-04-15T05:36:30.062Z,12.80
2023-04-15T05:38:58.237Z,13.80
2023-04-15T05:41:26.688Z,12.80
2023-04-15T05:43:54.683Z,12.40
2023-04-15T05:46:23.197Z,13.80
2023-04-15T05:48:51.795Z,14.10
2023-04-15T05:51:19.763Z,11.90
2023-04-15T05:53:47.770Z,13.40
2023-04-15T05:56:15.966Z,14.00
2023-04-15T05:58:44.002Z,12.90
2023-04-15T06:01:12.948Z,14.50
2023-04-15T06:03:41.443Z,16.00
2023-04-15T06:06:10.063Z,12.90
2023-04-15T06:08:38.536Z,16.60
2023-04-15T06:11:06.804Z,16.80
2023-04-15T06:13:35.295Z,15.20
2023-04-15T06:16:04.323Z,15.90
2023-04-15T06:18:32.395Z,18.00
2023-04-15T06:21:00.512Z,17.30
2023-04-15T06:23:28.809Z,15.50
2023-04-15T06:25:57.018Z,15.30
2023-04-15T06:28:25.159Z,15.40
2023-04-15T06:30:53.760Z,14.40
2023-04-15T06:33:21.917Z,16.80
2023-04-15T06:35:50.399Z,16.90
2023-04-15T06:38:18.803Z,15.40
2023-04-15T06:40:47.137Z,22.90
2023-04-15T06:43:15.652Z,16.10
2023-04-15T06:45:43.827Z,15.70
2023-04-15T06:48:12.246Z,16.40
2023-04-15T06:50:40.488Z,15.60
2023-04-15T06:53:08.426Z,15.20
2023-04-15T06:55:36.692Z,20.90
2023-04-15T06:58:04.771Z,17.60
2023-04-15T07:00:34.147Z,14.00
2023-04-15T07:03:03.983Z,16.20
2023-04-15T07:05:32.960Z,17.40
2023-04-15T07:08:01.325Z,18.30
2023-04-15T07:10:29.842Z,32.60
2023-04-15T07:12:57.990Z,17.50
2023-04-15T07:15:26.039Z,18.70
2023-04-15T07:17:54.599Z,20.00
2023-04-15T07:20:22.948Z,19.10
2023-04-15T07:22:50.910Z,17.30
2023-04-15T07:25:19.271Z,51.10
2023-04-15T07:27:47.636Z,17.40
2023-04-15T07:30:16.087Z,36.20
2023-04-15T07:32:44.062Z,17.80
2023-04-15T07:35:12.305Z,16.30
2023-04-15T07:37:40.357Z,17.70
2023-04-15T07:40:09.157Z,17.60
2023-04-15T07:42:39.411Z,15.40
2023-04-15T07:45:09.659Z,15.90
2023-04-15T07:47:38.068Z,17.70
2023-04-15T07:50:07.080Z,16.30
2023-04-15T07:52:39.604Z,16.70
2023-04-15T07:55:11.727Z,20.00
2023-04-15T07:57:40.473Z,16.40
2023-04-15T08:00:09.203Z,18.10
2023-04-15T08:02:43.729Z,16.50
2023-04-15T08:05:11.958Z,17.20
2023-04-15T08:07:40.005Z,18.00
2023-04-15T08:10:08.790Z,15.30
2023-04-15T08:12:37.431Z,18.90
2023-04-15T08:15:05.753Z,17.30
2023-04-15T08:17:33.948Z,15.60
2023-04-15T08:20:02.208Z,17.40
2023-04-15T08:22:30.292Z,17.30
2023-04-15T08:24:58.607Z,15.30
2023-04-15T08:27:27.372Z,20.20
2023-04-15T08:29:58.823Z,17.90
2023-04-15T08:32:27.431Z,21.20
2023-04-15T08:34:55.872Z,22.80
2023-04-15T08:37:24.651Z,18.60
2023-04-15T08:39:52.992Z,18.20
2023-04-15T08:42:24.303Z,17.60
2023-04-15T08:44:52.804Z,19.30
2023-04-15T08:47:23.068Z,17.10
2023-04-15T08:49:54.331Z,15.70
2023-04-15T08:52:22.861Z,18.00
2023-04-15T08:54:51.662Z,19.70
2023-04-15T08:57:20.091Z,18.10
2023-04-15T08:59:48.467Z,16.20
2023-04-15T09:02:16.752Z,16.60
2023-04-15T09:04:44.849Z,16.60
2023-04-15T09:07:12.946Z,15.10
2023-04-15T09:09:42.386Z,16.90
2023-04-15T09:12:11.827Z,16.80
2023-04-15T09:14:41.035Z,16.80
2023-04-15T09:17:11.855Z,17.60
2023-04-15T09:19:39.906Z,16.80
2023-04-15T09:22:09.133Z,16.10
2023-04-15T09:24:39.183Z,15.50
2023-04-15T09:27:07.531Z,16.10
2023-04-15T09:29:35.622Z,15.90
2023-04-15T09:32:11.128Z,16.30
2023-04-15T09:34:39.280Z,17.00
2023-04-15T09:37:09.987Z,18.70
2023-04-15T09:39:50.370Z,15.90
2023-04-15T09:42:24.547Z,21.50
2023-04-15T09:44:55.599Z,23.70
2023-04-15T09:47:32.842Z,18.90
2023-04-15T09:50:02.048Z,19.40
2023-04-15T09:52:32.265Z,21.10
2023-04-15T09:55:00.446Z,17.70
2023-04-15T09:57:38.658Z,18.60
2023-04-15T10:00:11.806Z,16.70
2023-04-15T10:02:43.350Z,19.40
2023-04-15T10:05:12.991Z,19.80
2023-04-15T10:07:43.769Z,17.40
2023-04-15T10:10:13.073Z,18.90
2023-04-15T10:12:43.903Z,17.90
2023-04-15T10:15:17.633Z,15.40
2023-04-15T10:17:46.669Z,17.10
2023-04-15T10:20:15.306Z,15.50
2023-04-15T10:22:44.576Z,16.50
2023-04-15T10:25:15.882Z,16.70
2023-04-15T10:27:43.967Z,18.30
2023-04-15T10:30:12.544Z,16.40
2023-04-15T10:32:40.990Z,15.50
2023-04-15T10:35:11.065Z,15.70
2023-04-15T10:37:39.256Z,15.90
2023-04-15T10:40:29.493Z,16.50
2023-04-15T10:43:03.486Z,17.00
2023-04-15T10:45:37.090Z,18.40
2023-04-15T10:48:07.743Z,17.70
2023-04-15T10:50:37.341Z,18.80
2023-04-15T10:53:05.819Z,19.70
2023-04-15T10:55:34.913Z,19.10
2023-04-15T10:58:03.247Z,16.40
2023-04-15T11:00:32.341Z,17.50
2023-04-15T11:03:10.210Z,21.00
2023-04-15T11:05:41.938Z,19.30
2023-04-15T11:08:13.748Z,21.60
2023-04-15T11:10:41.755Z,22.10
2023-04-15T11:13:09.689Z,22.50
2023-04-15T11:15:42.259Z,22.90
2023-04-15T11:18:13.335Z,19.40
2023-04-15T11:20:42.958Z,19.60
2023-04-15T11:23:15.086Z,17.70
2023-04-15T11:25:44.137Z,20.30
2023-04-15T11:28:12.954Z,16.40
2023-04-15T11:30:42.301Z,15.30
2023-04-15T11:33:12.507Z,18.70
2023-04-15T11:35:44.331Z,15.30
2023-04-15T11:38:14.186Z,17.30
2023-04-15T11:40:46.233Z,17.40
2023-04-15T11:43:16.774Z,21.20
2023-04-15T11:45:53.149Z,18.60
2023-04-15T11:48:26.344Z,17.70
2023-04-15T11:50:59.172Z,15.90
2023-04-15T11:53:43.076Z,16.50
2023-04-15T11:56:11.769Z,14.00
2023-04-15T11:58:39.758Z,13.50
2023-04-15T12:01:08.042Z,13.50
2023-04-15T12:03:49.926Z,13.40
2023-04-15T12:06:21.912Z,12.60
2023-04-15T12:08:50.912Z,11.30
2023-04-15T12:11:19.430Z,11.00
2023-04-15T12:13:48.608Z,11.20
2023-04-15T12:16:17.159Z,10.80
2023-04-15T12:18:45.981Z,11.00
2023-04-15T12:21:14.336Z,11.70
2023-04-15T12:23:50.564Z,10.40
2023-04-15T12:26:19.581Z,10.40
2023-04-15T12:28:47.936Z,10.40
2023-04-15T12:31:15.971Z,10.40
2023-04-15T12:33:43.979Z,11.10
2023-04-15T12:36:11.893Z,9.90
2023-04-15T12:38:39.839Z,10.00
2023-04-15T12:41:07.998Z,10.10
2023-04-15T12:43:36.380Z,10.30
2023-04-15T12:46:05.152Z,10.40
2023-04-15T12:48:33.448Z,8.70
2023-04-15T12:51:01.612Z,8.00
2023-04-15T12:53:30.288Z,8.50
2023-04-15T12:55:58.333Z,8.00
2023-04-15T12:58:26.310Z,8.30
2023-04-15T13:00:54.267Z,7.70
2023-04-15T13:03:22.245Z,8.50
2023-04-15T13:05:50.411Z,8.60
2023-04-15T13:08:19.100Z,7.30
2023-04-15T13:10:47.349Z,8.40
2023-04-15T13:13:16.991Z,6.90
2023-04-15T13:15:46.336Z,7.80
2023-04-15T13:18:14.538Z,8.90
2023-04-15T13:20:42.463Z,10.10
2023-04-15T13:23:10.783Z,7.00
2023-04-15T13:25:38.901Z,6.70
2023-04-15T13:28:06.886Z,5.30
2023-04-15T13:30:35.039Z,5.50
2023-04-15T13:33:03.060Z,6.30
2023-04-15T13:35:32.387Z,5.20
2023-04-15T13:38:00.478Z,5.40
2023-04-15T13:40:28.666Z,5.50
2023-04-15T13:42:57.990Z,5.10
2023-04-15T13:45:26.385Z,5.80
2023-04-15T13:47:55.778Z,4.70
2023-04-15T13:50:23.990Z,4.60
2023-04-15T13:52:52.277Z,5.30
2023-04-15T13:55:23.745Z,4.60
2023-04-15T13:57:53.974Z,4.90
2023-04-15T14:00:22.510Z,5.00
2023-04-15T14:02:50.716Z,4.10
2023-04-15T14:05:18.888Z,3.80
2023-04-15T14:07:46.985Z,4.30
2023-04-15T14:10:15.158Z,3.50
2023-04-15T14:12:43.164Z,4.20
2023-04-15T14:15:11.353Z,4.30
2023-04-15T14:17:39.436Z,3.80
2023-04-15T14:20:08.038Z,4.10
2023-04-15T14:22:36.354Z,4.70
2023-04-15T14:25:04.968Z,4.50
2023-04-15T14:27:32.987Z,3.30
2023-04-15T14:30:01.220Z,3.90
2023-04-15T14:32:29.514Z,3.30
2023-04-15T14:34:57.682Z,4.40
2023-04-15T14:37:26.625Z,4.80
2023-04-15T14:39:54.637Z,2.80
2023-04-15T14:42:22.645Z,3.10
2023-04-15T14:44:50.806Z,3.20
2023-04-15T14:47:18.970Z,3.30
2023-04-15T14:49:47.151Z,2.90
2023-04-15T14:52:15.109Z,2.80
2023-04-15T14:54:43.147Z,3.00
2023-04-15T14:57:11.302Z,3.80
2023-04-15T14:59:39.213Z,3.30
2023-04-15T15:02:08.448Z,3.10
2023-04-15T15:04:37.241Z,2.20
2023-04-15T15:07:05.283Z,3.10
2023-04-15T15:09:34.926Z,2.40
2023-04-15T15:12:03.246Z,2.40
2023-04-15T15:14:31.270Z,2.40
2023-04-15T15:16:59.789Z,2.50
2023-04-15T15:19:27.728Z,2.10
2023-04-15T15:21:55.799Z,2.60
2023-04-15T15:24:23.908Z,2.70
2023-04-15T15:26:51.938Z,2.70
2023-04-15T15:29:19.938Z,2.20
2023-04-15T15:31:47.932Z,2.70
2023-04-15T15:34:16.315Z,1.80
2023-04-15T15:36:44.321Z,2.50
2023-04-15T15:39:12.380Z,2.30
2023-04-15T15:41:40.309Z,1.60
2023-04-15T15:44:08.227Z,2.00
2023-04-15T15:46:36.446Z,2.30
2023-04-15T15:49:05.272Z,2.20
2023-04-15T15:51:33.760Z,2.10
2023-04-15T15:54:02.020Z,1.90
2023-04-15T15:56:30.122Z,2.10
2023-04-15T15:58:58.163Z,2.80
2023-04-15T16:01:26.368Z,2.00
2023-04-15T16:03:54.508Z,2.60
2023-04-15T16:06:22.689Z,2.10
2023-04-15T16:08:50.683Z,2.50
2023-04-15T16:11:18.637Z,2.00
2023-04-15T16:13:46.963Z,1.40
2023-04-15T16:16:14.998Z,2.40
2023-04-15T16:18:43.035Z,2.10
2023-04-15T16:21:11.185Z,2.10
2023-04-15T16:23:39.475Z,2.60
2023-04-15T16:26:07.567Z,1.90
2023-04-15T16:28:35.501Z,2.10
2023-04-15T16:31:03.591Z,2.60
2023-04-15T16:33:32.391Z,2.50
2023-04-15T16:36:00.401Z,3.70
2023-04-15T16:38:28.343Z,7.40
2023-04-15T16:40:59.047Z,4.30
2023-04-15T16:43:27.555Z,4.80
2023-04-15T16:45:55.718Z,5.00
2023-04-15T16:48:24.125Z,4.30
2023-04-15T16:50:52.098Z,4.70
2023-04-15T16:53:20.160Z,6.00
2023-04-15T16:55:48.164Z,3.90
2023-04-15T16:58:16.369Z,6.00
2023-04-15T17:00:44.435Z,4.40
2023-04-15T17:03:12.446Z,4.20
2023-04-15T17:05:42.558Z,4.70
2023-04-15T17:08:10.950Z,3.80
2023-04-15T17:10:38.944Z,4.50
2023-04-15T17:13:07.306Z,4.30
2023-04-15T17:15:35.329Z,3.80
2023-04-15T17:18:04.882Z,2.20
2023-04-15T17:20:32.907Z,2.10
2023-04-15T17:23:00.904Z,2.70
2023-04-15T17:25:29.000Z,3.00
2023-04-15T17:27:57.080Z,3.50
2023-04-15T17:30:25.249Z,3.20
2023-04-15T17:32:53.319Z,3.20
2023-04-15T17:35:23.183Z,6.50
2023-04-15T17:37:51.330Z,4.30
2023-04-15T17:40:19.278Z,4.50
2023-04-15T17:42:47.228Z,4.50
2023-04-15T17:45:15.237Z,5.70
2023-04-15T17:47:44.127Z,6.40
2023-04-15T17:50:12.570Z,5.80
2023-04-15T17:52:40.725Z,6.70
2023-04-15T17:55:08.778Z,5.00
2023-04-15T17:57:36.916Z,4.60
2023-04-15T18:00:06.249Z,3.50
2023-04-15T18:02:41.335Z,5.60
2023-04-15T18:05:09.852Z,5.30
2023-04-15T18:07:38.031Z,4.20
2023-04-15T18:10:07.308Z,4.70
2023-04-15T18:12:35.564Z,5.60
2023-04-15T18:15:04.586Z,4.80
2023-04-15T18:17:32.949Z,3.90
2023-04-15T18:20:01.319Z,3.90
2023-04-15T18:22:29.741Z,4.90
2023-04-15T18:25:03.034Z,3.60
2023-04-15T18:27:34.091Z,4.20
2023-04-15T18:30:02.625Z,4.40
2023-04-15T18:32:32.990Z,5.40
2023-04-15T18:35:01.192Z,4.60
2023-04-15T18:37:32.444Z,4.80
2023-04-15T18:40:01.192Z,4.80
2023-04-15T18:42:29.140Z,4.70
2023-04-15T18:44:57.171Z,4.30
2023-04-15T18:47:27.133Z,4.20
2023-04-15T18:49:55.275Z,5.40
2023-04-15T18:52:23.283Z,4.20
2023-04-15T18:54:51.490Z,5.10
2023-04-15T18:57:23.378Z,5.40
2023-04-15T19:00:00.900Z,4.80
2023-04-15T19:02:29.093Z,4.40
2023-04-15T19:04:57.296Z,5.10
2023-04-15T19:07:25.681Z,5.10
2023-04-15T19:09:53.632Z,5.40
2023-04-15T19:12:21.907Z,8.10
2023-04-15T19:14:50.004Z,7.60
2023-04-15T19:17:22.323Z,7.30
2023-04-15T19:19:51.435Z,5.30
2023-04-15T19:22:20.197Z,5.40
2023-04-15T19:24:48.493Z,5.40
2023-04-15T19:27:16.933Z,4.10
2023-04-15T19:29:45.459Z,4.70
2023-04-15T19:32:14.701Z,4.80
2023-04-15T19:34:43.044Z,4.70
2023-04-15T19:37:11.371Z,5.10
2023-04-15T19:39:39.597Z,5.30
2023-04-15T19:42:07.576Z,5.00
2023-04-15T19:44:37.422Z,5.00
2023-04-15T19:47:05.460Z,5.00
2023-04-15T19:49:33.601Z,3.70
2023-04-15T19:52:01.600Z,3.90
2023-04-15T19:54:31.134Z,4.00
2023-04-15T19:56:59.294Z,4.80
2023-04-15T19:59:27.335Z,4.80
2023-04-15T20:01:55.397Z,4.90
2023-04-15T20:04:23.634Z,4.60
2023-04-15T20:06:51.634Z,4.40
2023-04-15T20:09:19.612Z,4.80
2023-04-15T20:12:48.261Z,4.60
2023-04-15T20:14:36.277Z,4.60
2023-04-15T20:17:04.324Z,5.00
2023-04-15T20:19:32.218Z,5.10
2023-04-15T20:22:00.299Z,5.40
2023-04-15T20:24:28.323Z,6.50
2023-04-15T20:26:57.807Z,7.30
2023-04-15T20:29:25.826Z,8.60
2023-04-15T20:31:53.937Z,9.50
2023-04-15T20:34:21.850Z,10.30
2023-04-15T20:36:49.885Z,11.00
2023-04-15T20:39:17.895Z,9.20
2023-04-15T20:41:45.925Z,10.40
2023-04-15T20:44:13.903Z,9.30
2023-04-15T20:46:41.877Z,13.00
2023-04-15T20:49:09.919Z,12.20
2023-04-15T20:51:38.406Z,13.10
2023-04-15T20:54:06.451Z,14.20
2023-04-15T20:56:34.494Z,13.80
2023-04-15T20:59:02.625Z,11.40
2023-04-15T21:01:30.714Z,11.80
2023-04-15T21:03:59.207Z,10.00
2023-04-15T21:06:27.937Z,12.30
2023-04-15T21:08:55.908Z,7.60
2023-04-15T21:11:45.808Z,9.90
2023-04-15T21:14:12.499Z,8.80
2023-04-15T21:16:40.620Z,7.50
2023-04-15T21:19:09.463Z,6.40
2023-04-15T21:21:37.496Z,5.50
2023-04-15T21:24:07.965Z,6.20
2023-04-15T21:26:36.550Z,6.70
2023-04-15T21:29:04.892Z,7.90
2023-04-15T21:31:33.229Z,7.60
2023-04-15T21:34:01.331Z,5.40
2023-04-15T21:36:29.304Z,5.20
2023-04-15T21:38:57.258Z,5.90
2023-04-15T21:41:25.372Z,6.70
2023-04-15T21:43:53.453Z,9.30
2023-04-15T21:46:25.410Z,9.30
2023-04-15T21:48:55.241Z,6.50
2023-04-15T21:51:23.527Z,7.60
2023-04-15T21:53:52.790Z,8.00
2023-04-15T21:56:23.343Z,6.80
2023-04-15T21:58:54.064Z,5.00
2023-04-15T22:01:22.124Z,6.30
2023-04-15T22:03:50.448Z,6.40
2023-04-15T22:06:18.814Z,5.30
2023-04-15T22:08:56.094Z,5.60
2023-04-15T22:11:34.759Z,5.20
2023-04-15T22:14:02.735Z,5.50
2023-04-15T22:16:30.718Z,6.50
2023-04-15T22:18:58.715Z,4.70
2023-04-15T22:21:27.139Z,4.50
2023-04-15T22:24:32.521Z,5.80
2023-04-15T22:26:43.239Z,6.10
2023-04-15T22:29:11.162Z,6.10
2023-04-15T22:31:39.178Z,5.70
2023-04-15T22:34:07.418Z,5.60
2023-04-15T22:36:35.652Z,5.20
2023-04-15T22:39:03.771Z,5.70
2023-04-15T22:41:32.186Z,5.90
2023-04-15T22:44:00.298Z,6.60
2023-04-15T22:46:28.238Z,6.40
2023-04-15T22:48:56.355Z,6.00
2023-04-15T22:51:27.079Z,5.90
2023-04-15T22:53:55.638Z,5.40
2023-04-15T22:56:23.652Z,5.10
2023-04-15T22:58:51.715Z,7.00
2023-04-15T23:01:21.011Z,7.40
2023-04-15T23:03:56.062Z,6.40
2023-04-15T23:06:25.683Z,5.40
2023-04-15T23:08:54.201Z,4.40
2023-04-15T23:11:22.233Z,4.50
2023-04-15T23:13:50.883Z,4.90
2023-04-15T23:16:18.971Z,4.90
2023-04-15T23:18:47.000Z,5.10
2023-04-15T23:21:14.971Z,4.40
2023-04-15T23:23:43.043Z,4.50
2023-04-15T23:26:10.961Z,5.20
2023-04-15T23:28:38.983Z,5.50
2023-04-15T23:31:07.362Z,6.30
2023-04-15T23:33:35.664Z,6.10
2023-04-15T23:36:04.469Z,6.50
2023-04-15T23:38:32.483Z,7.20
2023-04-15T23:41:00.860Z,6.60
2023-04-15T23:43:29.002Z,5.90
2023-04-15T23:45:57.172Z,6.80
2023-04-15T23:48:25.132Z,7.00
2023-04-15T23:50:53.069Z,7.80
2023-04-15T23:53:21.041Z,6.80
2023-04-15T23:55:49.286Z,7.10
2023-04-15T23:58:17.548Z,6.90
